Home > Products > Valid Products > TAF

000
FTUS44 KAMA 111120
TAFGUY
TAF
KGUY 111120Z 1112/1212 36007KT P6SM SKC
     FM111800 20008KT P6SM SKC
     FM120300 03010KT P6SM SKC=



000
FTUS44 KAMA 111120
TAFAMA
TAF
KAMA 111120Z 1112/1212 36010KT P6SM SCT250
     FM112000 22005KT P6SM SKC=



000
FTUS44 KAMA 111120
TAFDHT
TAF
KDHT 111120Z 1112/1212 35010KT P6SM SKC
     FM111800 21008KT P6SM SKC
     FM120600 02009KT P6SM SKC=



000
FTUS44 KAMA 110520
TAFAMA
TAF
KAMA 110520Z 1106/1206 29010KT P6SM SCT250
     FM110800 36010KT P6SM BKN250
     FM112000 27005KT P6SM SCT250
     FM120000 18008KT P6SM SCT250=



000
FTUS44 KAMA 110520
TAFDHT
TAF
KDHT 110520Z 1106/1206 35010KT P6SM SCT250
     FM111800 21009KT P6SM SCT250=



000
FTUS44 KAMA 110520
TAFGUY
TAF
KGUY 110520Z 1106/1206 34007KT P6SM SCT250
     FM111900 20008KT P6SM SCT250
     FM120400 32006KT P6SM FEW250=



000
FTUS44 KAMA 110520
TAFAMA
TAF
KAMA 110520Z 1106/1206 29010KT P6SM SCT250
     FM110800 36010KT P6SM BKN250
     FM112000 27005KT P6SM SCT250
     FM120000 18008KT P6SM SCT250=



000
FTUS44 KAMA 110520
TAFDHT
TAF
KDHT 110520Z 1106/1206 35010KT P6SM SCT250
     FM111800 21009KT P6SM SCT250=



000
FTUS44 KAMA 110520
TAFGUY
TAF
KGUY 110520Z 1106/1206 34007KT P6SM SCT250
     FM111900 20008KT P6SM SCT250
     FM120400 32006KT P6SM FEW250=



000
FTUS44 KAMA 102320
TAFDHT
TAF
KDHT 102320Z 1100/1124 25008KT P6SM SKC
     FM110300 36010KT P6SM SCT250
     FM111900 21009KT P6SM SCT250=



000
FTUS44 KAMA 102320
TAFAMA
TAF
KAMA 102320Z 1100/1124 25010KT P6SM SKC
     FM110600 36010KT P6SM SCT250
     FM112000 27005KT P6SM SCT250=



000
FTUS44 KAMA 102320
TAFGUY
TAF
KGUY 102320Z 1100/1124 34007KT P6SM SKC
     FM111900 20008KT P6SM SCT250=



000
FTUS44 KAMA 102320
TAFAMA
TAF
KAMA 102320Z 1100/1124 25010KT P6SM SKC
     FM110600 36010KT P6SM SCT250
     FM112000 27005KT P6SM SCT250=



000
FTUS44 KAMA 102320
TAFDHT
TAF
KDHT 102320Z 1100/1124 25008KT P6SM SKC
     FM110300 36010KT P6SM SCT250
     FM111900 21009KT P6SM SCT250=



000
FTUS44 KAMA 102320
TAFGUY
TAF
KGUY 102320Z 1100/1124 34007KT P6SM SKC
     FM111900 20008KT P6SM SCT250=



000
FTUS44 KAMA 101720
TAFGUY
TAF
KGUY 101720Z 1018/1118 29008KT P6SM SKC
     FM110000 35008KT P6SM SCT250=



000
FTUS44 KAMA 101720
TAFAMA
TAF
KAMA 101720Z 1018/1118 25018G26KT P6SM SKC
     FM110000 25010KT P6SM SKC
     FM110600 35010KT P6SM SCT250=



000
FTUS44 KAMA 101720
TAFDHT
TAF
KDHT 101720Z 1018/1118 25013KT P6SM SKC
     FM102300 25008KT P6SM SKC
     FM110300 36009KT P6SM SCT250=



000
FTUS44 KAMA 101120
TAFDHT
TAF
KDHT 101120Z 1012/1112 27008KT P6SM SKC
     FM101700 24015G23KT P6SM SKC
     FM102300 23008KT P6SM SKC
     FM110400 36010KT P6SM SKC=



000
FTUS44 KAMA 101120
TAFAMA
TAF
KAMA 101120Z 1012/1112 25008KT P6SM SKC
     FM101700 25018G28KT P6SM SKC
     FM110000 24010KT P6SM SKC
     FM110700 35010KT P6SM SKC=



000
FTUS44 KAMA 101120
TAFGUY
TAF
KGUY 101120Z 1012/1112 26010KT P6SM SKC
     FM101700 26015G22KT P6SM SKC
     FM110000 35010KT P6SM SKC=



000
FTUS44 KAMA 100520
TAFGUY
TAF
KGUY 100520Z 1006/1106 26008KT P6SM SKC
     FM101700 26015G22KT P6SM SKC
     FM110000 33007KT P6SM SKC=



000
FTUS44 KAMA 100520
TAFAMA
TAF
KAMA 100520Z 1006/1106 27008KT P6SM SKC
     FM101700 24019G26KT P6SM SKC
     FM110000 23011KT P6SM SKC=



000
FTUS44 KAMA 100520
TAFDHT
TAF
KDHT 100520Z 1006/1106 28008KT P6SM SKC
     FM101700 24015G23KT P6SM SKC
     FM110000 23008KT P6SM SKC=



000
FTUS44 KAMA 092320
TAFAMA
TAF
KAMA 092320Z 1000/1024 31011KT P6SM SKC
     FM100500 25008KT P6SM SKC
     FM101700 24018G26KT P6SM SKC=



000
FTUS44 KAMA 092320
TAFGUY
TAF
KGUY 092320Z 1000/1024 36011KT P6SM SCT080
     FM100500 26006KT P6SM SKC
     FM101700 26015G22KT P6SM SKC=



000
FTUS44 KAMA 092320
TAFDHT
TAF
KDHT 092320Z 1000/1024 27008KT P6SM SKC
     FM101700 24015G23KT P6SM SKC=



000
FTUS44 KAMA 091733
TAFGUY
TAF
KGUY 091733Z 0918/1018 32012G20KT P6SM SKC
     FM092300 27008KT P6SM SKC=



000
FTUS44 KAMA 091733
TAFDHT
TAF
KDHT 091733Z 0918/1018 28012G20KT P6SM SKC
     FM092300 27008KT P6SM SKC=



000
FTUS44 KAMA 091733
TAFAMA
TAF
KAMA 091733Z 0918/1018 29016KT P6SM SKC
     FM100000 31006KT P6SM SKC
     FM101200 25010KT P6SM SKC=



000
FTUS44 KAMA 091733
TAFGUY
TAF
KGUY 091733Z 0918/1018 32012G20KT P6SM SKC
     FM092300 27008KT P6SM SKC=



000
FTUS44 KAMA 091733
TAFAMA
TAF
KAMA 091733Z 0918/1018 29016KT P6SM SKC
     FM100000 31006KT P6SM SKC
     FM101200 25010KT P6SM SKC=



000
FTUS44 KAMA 091733
TAFDHT
TAF
KDHT 091733Z 0918/1018 28012G20KT P6SM SKC
     FM092300 27008KT P6SM SKC=



000
FTUS44 KAMA 091120
TAFDHT
TAF
KDHT 091120Z 0912/1012 28008KT P6SM FEW200
     FM091700 34011KT P6SM FEW200
     FM092300 27008KT P6SM SKC=



000
FTUS44 KAMA 091120
TAFAMA
TAF
KAMA 091120Z 0912/1012 28010KT P6SM FEW200
     FM091700 30011KT P6SM FEW200
     FM092300 27008KT P6SM SKC=



000
FTUS44 KAMA 091120
TAFGUY
TAF
KGUY 091120Z 0912/1012 28010KT P6SM SCT200
     FM091700 33013KT P6SM FEW200
     FM092300 27008KT P6SM SCT200=



000
FTUS44 KAMA 091120
TAFDHT
TAF
KDHT 091120Z 0912/1012 28008KT P6SM FEW200
     FM091700 34011KT P6SM FEW200
     FM092300 27008KT P6SM SKC=



000
FTUS44 KAMA 091120
TAFGUY
TAF
KGUY 091120Z 0912/1012 28010KT P6SM SCT200
     FM091700 33013KT P6SM FEW200
     FM092300 27008KT P6SM SCT200=



000
FTUS44 KAMA 091120
TAFAMA
TAF
KAMA 091120Z 0912/1012 28010KT P6SM FEW200
     FM091700 30011KT P6SM FEW200
     FM092300 27008KT P6SM SKC=



000
FTUS44 KAMA 090520
TAFAMA
TAF
KAMA 090520Z 0906/1006 26008KT P6SM FEW300
     FM091700 33013KT P6SM FEW300
     FM100000 VRB06KT P6SM SKC=



000
FTUS44 KAMA 090520
TAFDHT
TAF
KDHT 090520Z 0906/1006 28007KT P6SM SCT300
     FM091700 35011KT P6SM FEW300
     FM092300 04006KT P6SM SKC=



000
FTUS44 KAMA 090520
TAFDHT
TAF
KDHT 090520Z 0906/1006 28007KT P6SM SCT300
     FM091700 35011KT P6SM FEW300
     FM092300 04006KT P6SM SKC=



000
FTUS44 KAMA 090520
TAFGUY
TAF
KGUY 090520Z 0906/1006 28007KT P6SM SCT300
     FM091700 35015G23KT P6SM FEW300
     FM100000 VRB06KT P6SM FEW300=



000
FTUS44 KAMA 090520
TAFAMA
TAF
KAMA 090520Z 0906/1006 26008KT P6SM FEW300
     FM091700 33013KT P6SM FEW300
     FM100000 VRB06KT P6SM SKC=



000
FTUS44 KAMA 090520
TAFGUY
TAF
KGUY 090520Z 0906/1006 28007KT P6SM SCT300
     FM091700 35015G23KT P6SM FEW300
     FM100000 VRB06KT P6SM FEW300=



000
FTUS44 KAMA 082343
TAFGUY
TAF
KGUY 082343Z 0900/0924 34008KT P6SM SCT300
     FM090400 28007KT P6SM SCT300
     FM091600 35017G25KT P6SM FEW300=



000
FTUS44 KAMA 082343
TAFAMA
TAF
KAMA 082343Z 0900/0924 32008KT P6SM FEW300
     FM090500 25008KT P6SM FEW300
     FM091700 33012KT P6SM FEW300=



000
FTUS44 KAMA 082343
TAFDHT
TAF
KDHT 082343Z 0900/0924 36008KT P6SM SCT300
     FM090400 27007KT P6SM SCT300
     FM091700 36011KT P6SM FEW300=



000
FTUS44 KAMA 082343
TAFDHT
TAF
KDHT 082343Z 0900/0924 36008KT P6SM SCT300
     FM090400 27007KT P6SM SCT300
     FM091700 36011KT P6SM FEW300=



000
FTUS44 KAMA 082343
TAFGUY
TAF
KGUY 082343Z 0900/0924 34008KT P6SM SCT300
     FM090400 28007KT P6SM SCT300
     FM091600 35017G25KT P6SM FEW300=



000
FTUS44 KAMA 082343
TAFAMA
TAF
KAMA 082343Z 0900/0924 32008KT P6SM FEW300
     FM090500 25008KT P6SM FEW300
     FM091700 33012KT P6SM FEW300=



000
FTUS44 KAMA 081726
TAFGUY
TAF
KGUY 081726Z 0818/0918 34022G30KT P6SM FEW200
     FM082300 34012KT P6SM SCT200
     FM090100 29008KT P6SM SCT200=



000
FTUS44 KAMA 081726
TAFAMA
TAF
KAMA 081726Z 0818/0918 34016G26KT P6SM FEW200
     FM082300 32011KT P6SM FEW200
     FM090100 27006KT P6SM SCT200=



000
FTUS44 KAMA 081726
TAFDHT
TAF
KDHT 081726Z 0818/0918 32011G19KT P6SM FEW200
     FM082300 28008KT P6SM SCT200=



000
FTUS44 KAMA 081726
TAFAMA
TAF
KAMA 081726Z 0818/0918 34016G26KT P6SM FEW200
     FM082300 32011KT P6SM FEW200
     FM090100 27006KT P6SM SCT200=



000
FTUS44 KAMA 081726
TAFGUY
TAF
KGUY 081726Z 0818/0918 34022G30KT P6SM FEW200
     FM082300 34012KT P6SM SCT200
     FM090100 29008KT P6SM SCT200=



000
FTUS44 KAMA 081726
TAFDHT
TAF
KDHT 081726Z 0818/0918 32011G19KT P6SM FEW200
     FM082300 28008KT P6SM SCT200=



    US Dept of Commerce
    National Oceanic and Atmospheric Administration
    National Weather Service
    1325 East West Highway
    Silver Spring, MD 20910
    Page Author: NWS Internet Services Team
Disclaimer
Information Quality
Credits
Glossary
Privacy Policy
Freedom of Information Act (FOIA)
About Us
Career Opportunities